Time;durP1;ratioP1;P1;durP2;ratioP2;P2;SDS_P1;SDS_P2;PMS_P1;PMS_P2;Temp;Humidity;BMP_temperature;BMP_pressure;BME280_temperature;BME280_humidity;BME280_pressure;Samples;Min_cycle;Max_cycle;Signal;HPM_P1;HPM_P2
2022/12/15 00:39:10;;;;;;;;;;;;;;;-5.57;55.86;99473.59;5039500;28;20023;-53
2022/12/15 00:41:35;;;;;;;;;;;;;;;-5.59;54.92;99470.09;5038338;28;20008;-52
2022/12/15 00:44:00;;;;;;;;;;;;;;;-5.49;55.56;99479.81;5043579;28;19928;-51
2022/12/15 00:50:50;;;;;;;;;;;;;;;-5.57;54.59;99465.91;5051560;28;19928;-52
2022/12/15 01:21:58;;;;;;;;;;;;;;;-5.80;54.39;99472.94;5050592;28;19940;-52
2022/12/15 01:24:23;;;;;;;;;;;;;;;-5.75;54.53;99473.94;5040871;28;19925;-51
2022/12/15 01:26:49;;;;;;;;;;;;;;;-5.76;54.04;99475.63;5042030;28;19932;-51
2022/12/15 01:29:14;;;;;;;;;;;;;;;-5.73;54.58;99480.84;5037544;28;19924;-54
2022/12/15 01:31:40;;;;;;;;;;;;;;;-5.89;54.93;99480.34;5037435;28;20327;-54
2022/12/15 01:34:05;;;;;;;;;;;;;;;-6.03;55.81;99473.16;5046869;28;20376;-54
2022/12/15 01:36:31;;;;;;;;;;;;;;;-6.04;56.06;99475.66;5051168;28;19960;-54
2022/12/15 01:38:56;;;;;;;;;;;;;;;-6.05;56.06;99486.72;5049152;28;20365;-53
2022/12/15 01:41:21;;;;;;;;;;;;;;;-6.04;56.08;99483.34;5035707;28;19932;-54
2022/12/15 01:43:46;;;;;;;;;;;;;;;-6.08;56.14;99489.19;5049230;28;19932;-55
2022/12/15 01:46:16;;;;;;;;;;;;;;;-6.14;56.07;99484.75;5048517;28;19936;-54
2022/12/15 01:48:51;;;;;;;;;;;;;;;-6.18;56.24;99484.59;5050952;28;19944;-52
2022/12/15 01:51:19;;;;;;;;;;;;;;;-6.25;56.37;99492.09;5038565;28;19921;-52
2022/12/15 01:53:47;;;;;;;;;;;;;;;-6.25;56.42;99486.13;5035966;28;19921;-51
2022/12/15 01:56:13;;;;;;;;;;;;;;;-6.26;56.31;99477.59;5037008;28;19921;-57
2022/12/15 01:58:41;;;;;;;;;;;;;;;-6.31;56.27;99484.22;5048704;28;19921;-53
2022/12/15 02:01:07;;;;;;;;;;;;;;;-6.31;56.44;99491.03;5041330;28;19943;-51
2022/12/15 02:03:32;;;;;;;;;;;;;;;-6.18;56.63;99484.59;5051062;28;20443;-53
2022/12/15 02:05:59;;;;;;;;;;;;;;;-6.12;56.16;99485.66;5040635;28;19933;-52
2022/12/15 02:08:25;;;;;;;;;;;;;;;-5.99;55.95;99487.75;5045335;28;19928;-53
2022/12/15 02:10:59;;;;;;;;;;;;;;;-5.93;55.34;99476.84;5049582;28;19924;-55
2022/12/15 02:13:24;;;;;;;;;;;;;;;-5.88;55.25;99475.25;5045618;28;19971;-51
2022/12/15 02:15:54;;;;;;;;;;;;;;;-5.84;54.94;99469.41;5045147;28;19956;-51
2022/12/15 02:18:26;;;;;;;;;;;;;;;-5.80;54.90;99467.81;5036779;28;19921;-53
2022/12/15 02:20:52;;;;;;;;;;;;;;;-5.75;54.87;99468.81;5037503;28;20030;-51
2022/12/15 02:23:26;;;;;;;;;;;;;;;-5.80;54.63;99468.69;5035654;28;20368;-51
2022/12/15 02:25:51;;;;;;;;;;;;;;;-5.95;54.43;99468.25;5038075;28;19929;-52
2022/12/15 02:28:25;;;;;;;;;;;;;;;-5.89;55.30;99465.88;5035840;28;19921;-52
2022/12/15 02:33:45;;;;;;;;;;;;;;;-5.83;54.45;99465.16;5044057;28;19959;-54
2022/12/15 02:36:43;;;;;;;;;;;;;;;-5.99;54.45;99471.53;5048931;28;20399;-54
2022/12/15 02:39:10;;;;;;;;;;;;;;;-6.25;55.20;99470.78;5028653;28;19921;-55
2022/12/15 02:41:36;;;;;;;;;;;;;;;-6.18;55.66;99476.94;5049007;28;19921;-52
2022/12/15 02:44:07;;;;;;;;;;;;;;;-6.07;55.95;99467.91;5036096;28;19921;-53
2022/12/15 02:46:44;;;;;;;;;;;;;;;-6.00;56.23;99464.69;5046797;28;20368;-53
2022/12/15 02:49:24;;;;;;;;;;;;;;;-5.94;56.68;99467.47;5049442;28;19991;-54
2022/12/15 02:52:08;;;;;;;;;;;;;;;-5.75;57.22;99472.22;5046419;28;19925;-55
2022/12/15 02:54:57;;;;;;;;;;;;;;;-5.72;57.73;99482.56;5046292;28;20016;-51
2022/12/15 02:57:25;;;;;;;;;;;;;;;-5.53;57.91;99472.84;5050510;28;19956;-53
2022/12/15 02:59:59;;;;;;;;;;;;;;;-5.40;57.65;99484.31;5048102;28;19928;-54
2022/12/15 03:02:27;;;;;;;;;;;;;;;-5.21;57.74;99482.28;5038955;28;19967;-52
2022/12/15 03:04:52;;;;;;;;;;;;;;;-5.13;57.01;99482.50;5045972;28;19928;-53
2022/12/15 03:07:18;;;;;;;;;;;;;;;-5.22;57.76;99487.38;5044583;28;19933;-55
2022/12/15 03:09:43;;;;;;;;;;;;;;;-5.53;57.99;99494.19;5049739;28;20402;-52
2022/12/15 03:12:09;;;;;;;;;;;;;;;-5.56;57.73;99493.25;5048878;28;20012;-54
2022/12/15 03:14:34;;;;;;;;;;;;;;;-5.65;58.87;99488.72;5038694;28;19964;-54
2022/12/15 03:16:59;;;;;;;;;;;;;;;-5.78;58.53;99486.66;5037998;28;19956;-51
2022/12/15 03:19:25;;;;;;;;;;;;;;;-5.73;58.00;99485.09;5049998;28;19931;-53
2022/12/15 03:21:51;;;;;;;;;;;;;;;-5.86;57.66;99490.69;5047432;28;20381;-54
2022/12/15 03:24:16;;;;;;;;;;;;;;;-5.89;57.96;99488.88;5049803;28;19928;-51
2022/12/15 03:26:42;;;;;;;;;;;;;;;-5.87;58.36;99488.91;5053825;28;19916;-55
2022/12/15 03:29:08;;;;;;;;;;;;;;;-5.79;59.54;99497.69;5047251;28;20308;-53
2022/12/15 03:31:33;;;;;;;;;;;;;;;-5.72;59.73;99487.69;5047965;28;19921;-51
2022/12/15 03:33:58;;;;;;;;;;;;;;;-5.82;59.59;99484.84;5042284;28;19970;-52
2022/12/15 03:36:24;;;;;;;;;;;;;;;-5.83;60.26;99486.50;5056222;28;19928;-53
2022/12/15 03:38:49;;;;;;;;;;;;;;;-5.89;60.19;99488.88;5044510;28;20083;-52
2022/12/15 03:41:16;;;;;;;;;;;;;;;-6.08;60.70;99491.75;5037575;28;20444;-53
2022/12/15 03:43:41;;;;;;;;;;;;;;;-6.15;61.49;99493.22;5046070;28;19929;-55
2022/12/15 03:46:07;;;;;;;;;;;;;;;-6.19;62.01;99504.19;5056140;28;20262;-51
2022/12/15 03:48:32;;;;;;;;;;;;;;;-6.13;62.55;99500.97;5057100;28;19957;-54
2022/12/15 03:50:58;;;;;;;;;;;;;;;-6.32;62.28;99492.72;5045802;28;19925;-53
2022/12/15 03:53:23;;;;;;;;;;;;;;;-6.17;62.56;99492.34;5051742;28;19929;-55
2022/12/15 03:55:48;;;;;;;;;;;;;;;-6.17;62.73;99505.13;5036957;28;19964;-53
2022/12/15 03:58:13;;;;;;;;;;;;;;;-6.12;62.34;99500.13;5044611;28;19964;-54
2022/12/15 04:00:39;;;;;;;;;;;;;;;-6.25;62.43;99496.34;5044314;28;19925;-51
2022/12/15 04:03:04;;;;;;;;;;;;;;;-6.29;62.42;99490.25;5050836;28;19921;-52
2022/12/15 04:05:32;;;;;;;;;;;;;;;-6.25;62.68;99493.78;5051721;28;21430;-52
2022/12/15 04:07:58;;;;;;;;;;;;;;;-6.19;62.18;99499.06;5039446;28;19924;-57
2022/12/15 04:10:25;;;;;;;;;;;;;;;-6.04;61.65;99503.81;5055765;28;20391;-51
2022/12/15 04:12:57;;;;;;;;;;;;;;;-5.99;61.51;99502.25;5038221;28;20012;-55
2022/12/15 04:15:23;;;;;;;;;;;;;;;-5.86;60.99;99499.22;5037464;28;20402;-54
2022/12/15 04:17:48;;;;;;;;;;;;;;;-5.67;60.64;99499.75;5045353;28;19960;-53
2022/12/15 04:20:13;;;;;;;;;;;;;;;-5.55;59.85;99494.97;5046332;28;20011;-53
2022/12/15 04:22:40;;;;;;;;;;;;;;;-5.42;59.29;99499.63;5053541;28;20327;-51
2022/12/15 05:33:27;;;;;;;;;;;;;;;-6.15;59.82;99540.97;5036042;28;19931;-53
2022/12/15 05:35:55;;;;;;;;;;;;;;;-6.00;59.55;99544.88;5049587;28;19929;-54
2022/12/15 05:38:20;;;;;;;;;;;;;;;-6.02;59.70;99543.09;5037940;28;19921;-56
2022/12/15 05:40:45;;;;;;;;;;;;;;;-6.20;60.51;99553.59;5047644;28;20027;-53
2022/12/15 05:43:10;;;;;;;;;;;;;;;-6.13;60.48;99554.69;5055946;28;20407;-52
2022/12/15 05:45:36;;;;;;;;;;;;;;;-6.20;60.63;99557.03;5038529;28;19928;-52
2022/12/15 05:48:01;;;;;;;;;;;;;;;-6.05;60.70;99568.56;5034075;28;19921;-55
2022/12/15 05:50:26;;;;;;;;;;;;;;;-5.89;60.71;99559.66;5046636;28;20391;-51
2022/12/15 05:52:51;;;;;;;;;;;;;;;-5.50;60.10;99567.69;5051288;28;19925;-52
2022/12/15 05:55:17;;;;;;;;;;;;;;;-5.35;59.97;99570.66;5054654;28;19921;-50
2022/12/15 05:57:43;;;;;;;;;;;;;;;-5.23;59.67;99575.25;5052004;28;19921;-54
2022/12/15 06:00:08;;;;;;;;;;;;;;;-5.26;59.99;99570.06;5032702;28;20335;-55
2022/12/15 06:02:34;;;;;;;;;;;;;;;-5.01;59.33;99579.31;5033653;28;20005;-55
2022/12/15 06:04:59;;;;;;;;;;;;;;;-4.96;59.08;99585.41;5041207;28;19921;-56
2022/12/15 06:07:24;;;;;;;;;;;;;;;-5.08;59.26;99582.53;5034043;28;19921;-56
2022/12/15 06:09:50;;;;;;;;;;;;;;;-4.99;59.24;99590.44;5039172;28;19974;-52
2022/12/15 06:12:15;;;;;;;;;;;;;;;-5.30;60.17;99587.03;5041200;28;19921;-52
2022/12/15 06:14:41;;;;;;;;;;;;;;;-5.20;60.20;99594.16;5047084;28;20349;-53
2022/12/15 06:17:06;;;;;;;;;;;;;;;-5.04;59.82;99592.03;5042886;28;19921;-54
2022/12/15 06:19:31;;;;;;;;;;;;;;;-4.92;59.25;99596.63;5043678;28;19975;-53
2022/12/15 06:21:57;;;;;;;;;;;;;;;-5.01;58.58;99603.22;5052811;28;20245;-53
2022/12/15 06:24:23;;;;;;;;;;;;;;;-4.94;58.55;99600.84;5032670;28;20387;-51
2022/12/15 06:26:48;;;;;;;;;;;;;;;-5.06;59.05;99612.50;5034312;28;19925;-56
2022/12/15 06:29:14;;;;;;;;;;;;;;;-5.05;58.65;99618.47;5034332;28;20418;-55
2022/12/15 06:31:40;;;;;;;;;;;;;;;-5.16;59.13;99614.75;5034362;28;19917;-51
2022/12/15 06:34:10;;;;;;;;;;;;;;;-5.54;59.25;99625.59;5034459;28;19944;-52
2022/12/15 06:36:35;;;;;;;;;;;;;;;-5.63;59.74;99629.53;5032759;28;20047;-53
2022/12/15 06:39:02;;;;;;;;;;;;;;;-5.49;59.67;99630.84;5041847;28;20019;-51
2022/12/15 06:41:29;;;;;;;;;;;;;;;-5.44;59.75;99634.41;5039350;28;19920;-53
2022/12/15 06:43:55;;;;;;;;;;;;;;;-5.45;59.71;99635.22;5049294;28;19931;-55
2022/12/15 06:46:20;;;;;;;;;;;;;;;-5.55;59.87;99636.63;5034019;28;19917;-55
2022/12/15 06:48:45;;;;;;;;;;;;;;;-5.54;59.67;99630.72;5034102;28;19924;-54
2022/12/15 06:51:12;;;;;;;;;;;;;;;-5.33;59.49;99637.31;5053701;28;20372;-54
2022/12/15 06:53:39;;;;;;;;;;;;;;;-5.14;59.08;99637.03;5057406;28;19925;-51
2022/12/15 06:56:06;;;;;;;;;;;;;;;-5.27;58.18;99645.16;5052392;28;19921;-54
2022/12/15 06:58:32;;;;;;;;;;;;;;;-5.60;59.13;99650.13;5049160;28;19957;-54
2022/12/15 07:00:57;;;;;;;;;;;;;;;-5.31;59.07;99646.75;5033944;28;20396;-55
2022/12/15 07:03:23;;;;;;;;;;;;;;;-5.38;59.01;99651.66;5048185;28;20022;-54
2022/12/15 07:05:59;;;;;;;;;;;;;;;-5.65;59.76;99656.78;5072752;28;19920;-54
2022/12/15 07:08:24;;;;;;;;;;;;;;;-5.46;59.56;99659.09;5072663;28;20382;-54
2022/12/15 07:10:49;;;;;;;;;;;;;;;-5.41;59.85;99651.56;5072609;28;19921;-53
2022/12/15 07:13:14;;;;;;;;;;;;;;;-5.27;59.64;99651.13;5072631;28;20303;-53
2022/12/15 07:15:40;;;;;;;;;;;;;;;-5.23;59.01;99655.56;5072573;28;19920;-52
2022/12/15 07:18:06;;;;;;;;;;;;;;;-5.40;58.58;99651.59;5072381;28;20363;-55
2022/12/15 07:20:32;;;;;;;;;;;;;;;-5.87;59.81;99661.22;5072943;28;19916;-55
2022/12/15 07:22:57;;;;;;;;;;;;;;;-5.84;60.08;99669.00;5072056;28;19927;-54
2022/12/15 07:25:23;;;;;;;;;;;;;;;-5.83;59.83;99674.97;5073743;28;19923;-54
2022/12/15 07:27:48;;;;;;;;;;;;;;;-5.74;59.65;99677.84;5073719;28;20303;-54
2022/12/15 07:30:14;;;;;;;;;;;;;;;-5.72;59.24;99687.28;5073836;28;19927;-53
2022/12/15 07:32:40;;;;;;;;;;;;;;;-5.80;59.05;99696.41;5073551;28;19917;-53
2022/12/15 07:35:07;;;;;;;;;;;;;;;-5.89;59.24;99703.81;5073965;28;19942;-55
2022/12/15 07:37:32;;;;;;;;;;;;;;;-6.16;59.90;99714.00;5073539;28;20391;-53
2022/12/15 07:39:58;;;;;;;;;;;;;;;-6.23;59.70;99715.47;5073556;28;19916;-53
2022/12/15 07:42:23;;;;;;;;;;;;;;;-6.26;59.59;99717.94;5074023;28;19978;-53
2022/12/15 07:44:48;;;;;;;;;;;;;;;-6.27;59.96;99716.16;5073619;28;19939;-54
2022/12/15 07:47:14;;;;;;;;;;;;;;;-6.21;59.38;99725.75;5073785;28;19927;-51
2022/12/15 07:49:39;;;;;;;;;;;;;;;-6.16;59.17;99724.22;5073501;28;19943;-53
2022/12/15 07:52:04;;;;;;;;;;;;;;;-6.07;58.79;99719.41;5073532;28;20386;-52
2022/12/15 07:54:29;;;;;;;;;;;;;;;-6.40;58.70;99726.78;5073290;28;19921;-55
2022/12/15 07:56:55;;;;;;;;;;;;;;;-6.39;58.69;99725.97;5071922;28;19953;-53
2022/12/15 07:59:20;;;;;;;;;;;;;;;-6.27;58.81;99721.28;5073650;28;19920;-54
2022/12/15 08:01:45;;;;;;;;;;;;;;;-6.14;58.23;99737.94;5046359;28;20322;-54
2022/12/15 08:04:11;;;;;;;;;;;;;;;-6.08;58.03;99742.41;5053410;28;19920;-54
2022/12/15 08:06:36;;;;;;;;;;;;;;;-6.40;58.13;99742.13;5050609;28;20376;-53
2022/12/15 08:09:01;;;;;;;;;;;;;;;-6.30;58.31;99743.34;5045101;28;19995;-55
2022/12/15 08:11:27;;;;;;;;;;;;;;;-6.23;58.20;99743.59;5050216;28;20383;-54
2022/12/15 08:13:52;;;;;;;;;;;;;;;-6.10;58.06;99746.56;5053108;28;20344;-54
2022/12/15 08:16:17;;;;;;;;;;;;;;;-6.28;58.09;99749.38;5050090;28;19975;-53
2022/12/15 08:18:43;;;;;;;;;;;;;;;-6.01;57.65;99749.47;5049160;28;19917;-55
2022/12/15 08:21:08;;;;;;;;;;;;;;;-5.76;57.46;99757.13;5037140;28;20391;-55
2022/12/15 08:23:34;;;;;;;;;;;;;;;-5.82;57.33;99751.81;5042743;28;19967;-56
2022/12/15 08:26:10;;;;;;;;;;;;;;;-5.98;57.32;99759.81;5053370;28;19994;-54
2022/12/15 08:28:36;;;;;;;;;;;;;;;-6.27;57.61;99769.00;5050984;28;20079;-53
2022/12/15 08:31:06;;;;;;;;;;;;;;;-6.11;58.00;99770.41;5049633;28;19925;-55
2022/12/15 08:33:31;;;;;;;;;;;;;;;-6.03;57.49;99774.97;5048777;28;19940;-51
2022/12/15 08:36:01;;;;;;;;;;;;;;;-5.66;57.33;99773.66;5038838;28;20369;-54
2022/12/15 08:38:27;;;;;;;;;;;;;;;-5.50;56.98;99781.03;5037105;28;20067;-52
2022/12/15 08:40:52;;;;;;;;;;;;;;;-5.32;56.95;99782.44;5036778;28;20399;-52
2022/12/15 08:43:17;;;;;;;;;;;;;;;-5.16;56.74;99781.25;5036447;28;19928;-56
2022/12/15 08:45:43;;;;;;;;;;;;;;;-4.95;56.30;99792.16;5035037;28;19932;-53
2022/12/15 08:48:08;;;;;;;;;;;;;;;-4.85;56.18;99794.19;5036036;28;20293;-52
2022/12/15 08:50:33;;;;;;;;;;;;;;;-4.66;55.79;99800.75;5034916;28;19931;-52
2022/12/15 08:52:58;;;;;;;;;;;;;;;-4.55;55.11;99790.78;5036365;28;19925;-53
2022/12/15 08:55:24;;;;;;;;;;;;;;;-4.60;54.99;99794.91;5036258;28;19921;-50
2022/12/15 08:57:49;;;;;;;;;;;;;;;-4.88;54.95;99798.34;5035865;28;20361;-54
2022/12/15 09:00:15;;;;;;;;;;;;;;;-4.98;55.55;99797.19;5035917;28;19921;-56
2022/12/15 09:02:40;;;;;;;;;;;;;;;-4.85;55.35;99809.56;5034646;28;19956;-55
2022/12/15 09:05:05;;;;;;;;;;;;;;;-4.88;55.12;99806.03;5036199;28;19921;-55
2022/12/15 09:07:31;;;;;;;;;;;;;;;-4.96;55.31;99805.78;5034515;28;20043;-54
2022/12/15 09:09:57;;;;;;;;;;;;;;;-4.81;55.01;99796.00;5035987;28;19928;-53
2022/12/15 09:12:22;;;;;;;;;;;;;;;-4.72;55.40;99798.84;5035651;28;19932;-56
2022/12/15 09:14:47;;;;;;;;;;;;;;;-4.51;54.99;99798.63;5035772;28;19921;-53
2022/12/15 09:17:12;;;;;;;;;;;;;;;-4.32;54.46;99791.47;5035778;28;20369;-56
2022/12/15 09:19:38;;;;;;;;;;;;;;;-4.28;54.18;99798.41;5035626;28;19921;-52
2022/12/15 09:22:04;;;;;;;;;;;;;;;-4.16;54.33;99790.19;5035416;28;19921;-55
2022/12/15 09:24:29;;;;;;;;;;;;;;;-4.21;54.23;99801.19;5035374;28;19927;-52
2022/12/15 09:26:55;;;;;;;;;;;;;;;-4.11;54.36;99798.88;5035523;28;19924;-54
2022/12/15 09:29:20;;;;;;;;;;;;;;;-4.09;54.61;99799.81;5035702;28;20012;-55
2022/12/15 09:31:45;;;;;;;;;;;;;;;-4.26;54.35;99804.47;5035313;28;20377;-54
2022/12/15 09:34:13;;;;;;;;;;;;;;;-4.15;54.49;99805.63;5035378;28;19921;-55
2022/12/15 09:36:39;;;;;;;;;;;;;;;-3.88;54.31;99795.25;5035276;28;20289;-55
2022/12/15 09:39:05;;;;;;;;;;;;;;;-3.81;53.89;99801.44;5033880;28;20361;-54
2022/12/15 09:41:34;;;;;;;;;;;;;;;-3.77;53.76;99798.97;5035583;28;19921;-53
2022/12/15 09:44:16;;;;;;;;;;;;;;;-3.63;53.88;99804.50;5035252;28;20292;-54
2022/12/15 09:46:53;;;;;;;;;;;;;;;-3.54;53.76;99801.28;5035175;28;19924;-52
2022/12/15 09:49:37;;;;;;;;;;;;;;;-3.34;53.88;99805.22;5035566;28;20315;-53
2022/12/15 09:52:04;;;;;;;;;;;;;;;-3.32;53.59;99806.09;5035125;28;19932;-52
2022/12/15 09:54:31;;;;;;;;;;;;;;;-3.55;53.90;99817.50;5033805;28;20369;-53
2022/12/15 09:56:57;;;;;;;;;;;;;;;-3.60;54.62;99814.81;5035295;28;19928;-52
2022/12/15 09:59:29;;;;;;;;;;;;;;;-3.44;54.86;99816.06;5034955;28;19917;-53
2022/12/15 10:02:00;;;;;;;;;;;;;;;-3.30;54.31;99812.16;5034884;28;19921;-52
2022/12/15 10:04:29;;;;;;;;;;;;;;;-3.66;54.25;99814.66;5033674;28;19943;-51
2022/12/15 10:07:04;;;;;;;;;;;;;;;-3.60;54.96;99808.81;5034615;28;19921;-52
2022/12/15 10:09:29;;;;;;;;;;;;;;;-3.48;54.88;99811.69;5033561;28;20392;-55
2022/12/15 10:11:58;;;;;;;;;;;;;;;-3.35;54.86;99807.72;5034681;28;19924;-52
2022/12/15 10:14:49;;;;;;;;;;;;;;;-3.15;54.88;99801.41;5034806;28;19925;-52
2022/12/15 10:17:26;;;;;;;;;;;;;;;-3.02;54.33;99797.41;5033147;28;19927;-53
2022/12/15 10:19:58;;;;;;;;;;;;;;;-2.88;54.09;99785.75;5034608;28;19917;-53
2022/12/15 10:22:25;;;;;;;;;;;;;;;-2.80;53.69;99789.34;5034262;28;20015;-56
2022/12/15 10:24:52;;;;;;;;;;;;;;;-2.73;53.82;99790.38;5034505;28;19951;-53
2022/12/15 10:27:23;;;;;;;;;;;;;;;-2.51;53.19;99790.00;5034457;28;19917;-55
2022/12/15 10:29:58;;;;;;;;;;;;;;;-2.55;53.30;99792.50;5034365;28;19917;-51
2022/12/15 10:32:24;;;;;;;;;;;;;;;-2.54;53.14;99783.94;5033366;28;19920;-54
2022/12/15 10:34:49;;;;;;;;;;;;;;;-2.49;53.53;99784.88;5033446;28;20019;-51
2022/12/15 10:37:18;;;;;;;;;;;;;;;-2.43;52.97;99787.59;5034355;28;19960;-53
2022/12/15 10:39:45;;;;;;;;;;;;;;;-2.40;53.10;99790.22;5034200;28;20007;-51
2022/12/15 10:42:13;;;;;;;;;;;;;;;-2.35;53.53;99795.50;5038659;28;19921;-52
2022/12/15 10:44:40;;;;;;;;;;;;;;;-2.29;53.57;99805.88;5044744;28;19944;-55
2022/12/15 10:47:25;;;;;;;;;;;;;;;-2.22;53.35;99805.19;5051920;28;19936;-53
2022/12/15 10:49:51;;;;;;;;;;;;;;;-2.17;53.11;99805.28;5061558;28;19956;-53
2022/12/15 10:52:24;;;;;;;;;;;;;;;-2.33;53.18;99802.38;5073951;28;19964;-52
2022/12/15 10:54:51;;;;;;;;;;;;;;;-2.18;53.38;99803.53;5073859;28;19916;-53
2022/12/15 10:57:30;;;;;;;;;;;;;;;-2.22;53.33;99804.31;5073821;28;20027;-54
2022/12/15 11:00:05;;;;;;;;;;;;;;;-2.30;53.22;99802.44;5074233;28;19916;-51
2022/12/15 11:02:32;;;;;;;;;;;;;;;-2.17;53.64;99794.97;5072778;28;19917;-51
2022/12/15 11:04:58;;;;;;;;;;;;;;;-2.11;53.29;99782.25;5073865;28;20413;-54
2022/12/15 11:07:35;;;;;;;;;;;;;;;-2.06;53.35;99780.63;5074026;28;19917;-51
2022/12/15 11:10:07;;;;;;;;;;;;;;;-2.06;53.38;99780.63;5073570;28;20390;-52
2022/12/15 11:12:50;;;;;;;;;;;;;;;-2.06;53.34;99786.63;5074375;28;19975;-54
2022/12/15 11:15:21;;;;;;;;;;;;;;;-2.18;53.93;99782.97;5073942;28;19920;-55
2022/12/15 11:17:50;;;;;;;;;;;;;;;-2.10;53.98;99784.84;5073484;28;20006;-54
2022/12/15 11:20:22;;;;;;;;;;;;;;;-2.04;53.62;99778.94;5074145;28;19920;-55
2022/12/15 11:23:03;;;;;;;;;;;;;;;-2.07;53.14;99778.91;5073715;28;19917;-53
2022/12/15 11:25:28;;;;;;;;;;;;;;;-2.01;53.35;99790.16;5073878;28;19999;-54
2022/12/15 11:27:55;;;;;;;;;;;;;;;-2.14;53.49;99784.75;5073787;28;19963;-53
2022/12/15 11:30:23;;;;;;;;;;;;;;;-2.14;54.10;99790.75;5073713;28;19916;-51
2022/12/15 11:32:52;;;;;;;;;;;;;;;-2.17;54.36;99792.41;5073684;28;19960;-53
2022/12/15 11:35:21;;;;;;;;;;;;;;;-2.15;53.94;99801.91;5072088;28;20015;-54
2022/12/15 11:38:02;;;;;;;;;;;;;;;-2.19;54.12;99809.50;5073700;28;19923;-57
2022/12/15 11:40:37;;;;;;;;;;;;;;;-2.34;54.43;99816.09;5033547;28;19921;-55
2022/12/15 11:43:21;;;;;;;;;;;;;;;-2.30;54.40;99811.88;5036168;28;19928;-52
2022/12/15 11:46:02;;;;;;;;;;;;;;;-2.19;54.22;99815.56;5055281;28;20032;-54
2022/12/15 11:48:34;;;;;;;;;;;;;;;-2.20;54.66;99818.06;5057553;28;19928;-53
2022/12/15 11:51:10;;;;;;;;;;;;;;;-2.01;54.04;99820.19;5057191;28;19924;-55
2022/12/15 11:54:07;;;;;;;;;;;;;;;-1.96;54.32;99817.69;5057810;28;19947;-54
2022/12/15 11:56:38;;;;;;;;;;;;;;;-1.91;54.39;99818.69;5024990;28;19921;-53
2022/12/15 11:59:03;;;;;;;;;;;;;;;-1.89;54.42;99825.56;5037132;28;19921;-53
2022/12/15 12:01:39;;;;;;;;;;;;;;;-2.15;54.67;99831.94;5037195;28;20369;-56
2022/12/15 12:04:13;;;;;;;;;;;;;;;-2.00;54.78;99834.78;5037235;28;20067;-61
2022/12/15 12:06:57;;;;;;;;;;;;;;;-2.12;55.29;99834.53;5037448;28;20369;-54
2022/12/15 12:09:28;;;;;;;;;;;;;;;-2.24;55.77;99832.59;5037178;28;19917;-52
2022/12/15 12:12:03;;;;;;;;;;;;;;;-2.28;55.88;99841.06;5037077;28;19917;-51
2022/12/15 12:14:28;;;;;;;;;;;;;;;-2.12;55.90;99850.00;5036671;28;19917;-56
2022/12/15 12:16:56;;;;;;;;;;;;;;;-2.10;55.63;99845.75;5036630;28;19921;-52
2022/12/15 12:19:22;;;;;;;;;;;;;;;-1.94;55.54;99844.38;5036931;28;20051;-53
2022/12/15 12:21:48;;;;;;;;;;;;;;;-2.11;56.09;99849.19;5036785;28;19965;-54
2022/12/15 12:24:26;;;;;;;;;;;;;;;-1.98;55.62;99853.72;5036588;28;19964;-51
2022/12/15 12:26:57;;;;;;;;;;;;;;;-2.07;56.21;99861.28;5036807;28;20365;-54
2022/12/15 12:29:33;;;;;;;;;;;;;;;-2.09;56.39;99852.63;5023612;28;19924;-53
2022/12/15 12:32:01;;;;;;;;;;;;;;;-2.03;56.19;99857.94;5015364;28;19922;-53
2022/12/15 12:34:29;;;;;;;;;;;;;;;-2.01;56.10;99858.81;5016397;28;20273;-51
2022/12/15 12:36:56;;;;;;;;;;;;;;;-2.04;56.43;99851.00;5016436;28;19921;-54
2022/12/15 12:39:24;;;;;;;;;;;;;;;-2.08;56.71;99862.94;5015105;28;20266;-55
2022/12/15 12:42:08;;;;;;;;;;;;;;;-2.05;56.56;99864.72;5031825;28;19917;-54
2022/12/15 12:44:35;;;;;;;;;;;;;;;-2.03;56.45;99857.94;5030820;28;19967;-53
2022/12/15 12:47:07;;;;;;;;;;;;;;;-2.07;56.46;99857.00;5017614;28;19924;-53
2022/12/15 12:49:49;;;;;;;;;;;;;;;-2.11;56.54;99867.19;5035943;28;19988;-55
2022/12/15 12:52:25;;;;;;;;;;;;;;;-2.00;56.44;99874.28;5036228;28;20016;-55
2022/12/15 12:55:09;;;;;;;;;;;;;;;-1.94;56.34;99870.13;5036223;28;19944;-52
2022/12/15 12:57:39;;;;;;;;;;;;;;;-2.01;56.83;99866.53;5052090;28;19931;-52
2022/12/15 13:00:05;;;;;;;;;;;;;;;-2.12;57.32;99862.84;5044931;28;19921;-52
2022/12/15 13:02:30;;;;;;;;;;;;;;;-2.03;56.99;99876.81;5045056;28;19921;-54
2022/12/15 13:05:14;;;;;;;;;;;;;;;-2.01;56.94;99876.84;5055811;28;19921;-55
2022/12/15 13:07:39;;;;;;;;;;;;;;;-2.06;57.21;99874.16;5055630;28;20270;-51
2022/12/15 13:10:07;;;;;;;;;;;;;;;-2.06;57.05;99873.31;5055522;28;20372;-53
2022/12/15 13:12:35;;;;;;;;;;;;;;;-2.12;57.53;99879.16;5055601;28;19917;-53
2022/12/15 13:15:20;;;;;;;;;;;;;;;-2.07;57.30;99887.03;5055272;28;19917;-56
2022/12/15 13:17:49;;;;;;;;;;;;;;;-2.10;57.36;99887.81;5055011;28;19967;-55
2022/12/15 13:20:19;;;;;;;;;;;;;;;-2.14;57.75;99888.59;5048863;28;19932;-55
2022/12/15 13:22:45;;;;;;;;;;;;;;;-2.15;57.54;99886.00;5035336;28;19924;-55
2022/12/15 13:25:26;;;;;;;;;;;;;;;-2.14;57.71;99888.59;5035211;28;20016;-57
2022/12/15 13:27:52;;;;;;;;;;;;;;;-2.13;57.92;99892.88;5035234;28;20012;-52
2022/12/15 13:30:17;;;;;;;;;;;;;;;-2.12;57.44;99894.63;5034925;28;20007;-57
2022/12/15 13:32:50;;;;;;;;;;;;;;;-2.12;57.42;99888.59;5034946;28;20024;-53
2022/12/15 13:35:24;;;;;;;;;;;;;;;-2.16;58.00;99899.66;5035045;28;19917;-56
2022/12/15 13:37:49;;;;;;;;;;;;;;;-2.20;58.07;99896.16;5035095;28;19917;-54
2022/12/15 13:40:23;;;;;;;;;;;;;;;-2.24;58.03;99905.50;5033532;28;19921;-56
2022/12/15 13:42:56;;;;;;;;;;;;;;;-2.27;58.33;99909.75;5035066;28;19917;-54
2022/12/15 13:45:29;;;;;;;;;;;;;;;-2.28;58.34;99913.13;5034681;28;19925;-55
2022/12/15 13:47:55;;;;;;;;;;;;;;;-2.37;58.05;99903.50;5034831;28;19928;-53
2022/12/15 13:50:39;;;;;;;;;;;;;;;-2.38;58.37;99906.06;5039491;28;19925;-54
2022/12/15 13:53:09;;;;;;;;;;;;;;;-2.41;58.30;99914.56;5035053;28;20349;-54
2022/12/15 13:55:36;;;;;;;;;;;;;;;-2.46;58.21;99912.72;5054661;28;19975;-55
2022/12/15 13:58:04;;;;;;;;;;;;;;;-2.54;58.61;99912.56;5055324;28;19990;-55
2022/12/15 14:00:30;;;;;;;;;;;;;;;-2.55;58.49;99919.41;5054389;28;20391;-55
2022/12/15 14:03:08;;;;;;;;;;;;;;;-2.68;59.12;99913.91;5054539;28;19917;-56
2022/12/15 14:05:33;;;;;;;;;;;;;;;-2.69;58.90;99914.75;5054526;28;19912;-54
2022/12/15 14:08:00;;;;;;;;;;;;;;;-2.68;59.15;99921.63;5053080;28;20442;-55
2022/12/15 14:10:29;;;;;;;;;;;;;;;-2.77;59.01;99923.16;5053709;28;20280;-55
2022/12/15 14:12:55;;;;;;;;;;;;;;;-2.83;59.32;99928.16;5054935;28;19921;-55
2022/12/15 14:15:28;;;;;;;;;;;;;;;-2.86;59.11;99922.94;5049661;28;20004;-54
2022/12/15 14:17:54;;;;;;;;;;;;;;;-2.94;59.72;99929.59;5034637;28;19924;-55
2022/12/15 14:20:24;;;;;;;;;;;;;;;-2.94;59.80;99929.59;5035114;28;19921;-57
2022/12/15 14:22:51;;;;;;;;;;;;;;;-2.78;59.68;99936.84;5034429;28;19955;-54
2022/12/15 14:25:24;;;;;;;;;;;;;;;-2.55;59.53;99936.53;5033429;28;20376;-52
2022/12/15 14:27:49;;;;;;;;;;;;;;;-2.32;59.39;99937.94;5034503;28;19924;-51
2022/12/15 14:30:15;;;;;;;;;;;;;;;-2.09;58.93;99938.44;5033991;28;19917;-55
2022/12/15 14:32:41;;;;;;;;;;;;;;;-1.93;58.34;99942.22;5043818;28;19916;-53
2022/12/15 14:35:26;;;;;;;;;;;;;;;-1.86;58.32;99933.81;5053949;28;19921;-54
2022/12/15 14:37:53;;;;;;;;;;;;;;;-1.71;57.93;99932.41;5053372;28;20013;-55
2022/12/15 14:40:18;;;;;;;;;;;;;;;-1.55;57.71;99930.16;5054187;28;20365;-56
2022/12/15 14:42:45;;;;;;;;;;;;;;;-1.50;57.70;99932.81;5053669;28;19951;-54
2022/12/15 14:45:17;;;;;;;;;;;;;;;-1.49;58.06;99931.97;5053621;28;20304;-57
2022/12/15 14:47:49;;;;;;;;;;;;;;;-1.44;58.07;99940.66;5052816;28;19952;-55
2022/12/15 14:50:15;;;;;;;;;;;;;;;-1.85;59.07;99951.00;5052230;28;19924;-55
2022/12/15 14:52:41;;;;;;;;;;;;;;;-1.54;58.58;99951.63;5046336;28;19926;-53
2022/12/15 14:55:25;;;;;;;;;;;;;;;-1.50;58.76;99961.16;5032729;28;19921;-55
2022/12/15 14:57:51;;;;;;;;;;;;;;;-1.54;58.98;99964.53;5032781;28;19928;-54
2022/12/15 15:00:25;;;;;;;;;;;;;;;-1.44;58.75;99961.28;5051656;28;20011;-55
2022/12/15 15:03:09;;;;;;;;;;;;;;;-1.48;58.67;99964.63;5053389;28;19921;-55
2022/12/15 15:05:38;;;;;;;;;;;;;;;-1.69;59.40;99959.91;5053118;28;19920;-56
2022/12/15 15:08:03;;;;;;;;;;;;;;;-1.67;59.12;99965.97;5052496;28;19924;-53
2022/12/15 15:10:29;;;;;;;;;;;;;;;-1.62;59.40;99961.78;5052437;28;19925;-56
2022/12/15 15:12:54;;;;;;;;;;;;;;;-1.56;59.07;99966.19;5053441;28;20406;-57
2022/12/15 15:15:23;;;;;;;;;;;;;;;-1.66;59.24;99966.84;5053581;28;19927;-54
2022/12/15 15:17:48;;;;;;;;;;;;;;;-1.65;59.13;99968.56;5053681;28;20441;-52